E5438 Weather Reports


time (UTC)temp
F
wind
direction
speed
knots
gust
knots
rain 1hr
in
rain 24hr
in
rain mn
in
humidity
%
barometer
mb
20260504130535 54 212 0.0 0.0 0.00 0.00 0.00 61 1018.4
20260504110527 48 223 0.0 0.0 0.00 0.00 0.00 70 1017.8
20260504100524 46 228 0.0 0.0 0.00 0.00 0.00 73 1017.9
20260504081534 47 278 0.0 0.0 0.00 0.00 0.00 71 1017.6
20260504081015 48 278 0.0 0.0 0.00 0.00 0.00 69 1017.7
20260504080514 49 278 0.0 0.0 0.00 0.00 0.00 69 1017.7
20260504050553 52 278 0.0 0.0 0.00 0.00 0.00 64 1018.8
20260504045549 52 278 0.0 0.0 0.00 0.00 0.00 62 1018.6
20260504045050 52 278 0.0 0.0 0.00 0.00 0.00 60 1018.5
20260504044549 52 278 0.0 0.0 0.00 0.00 0.00 61 1018.5
20260504044049 52 278 0.0 0.0 0.00 0.00 0.00 61 1018.4
20260504043549 52 278 0.0 0.0 0.00 0.00 0.00 61 1018.5
20260504043056 52 278 0.0 0.0 0.00 0.00 0.00 61 1018.4
20260504042548 53 278 0.0 0.0 0.00 0.00 0.00 60 1018.5
20260504042045 53 278 0.0 0.0 0.00 0.00 0.00 59 1018.5
20260504041545 53 278 0.0 0.0 0.00 0.00 0.00 59 1018.4
20260504041044 53 278 0.0 0.0 0.00 0.00 0.00 58 1018.5
20260504040544 53 278 0.0 0.0 0.00 0.00 0.00 58 1018.4
20260504040043 53 278 0.0 0.0 0.00 0.00 0.00 58 1018.3
20260504035543 54 278 0.0 0.0 0.00 0.00 0.00 58 1018.4
20260504035042 54 278 0.0 0.0 0.00 0.00 0.00 58 1018.4
20260504034542 54 278 0.0 0.0 0.00 0.00 0.00 57 1018.2
20260504034042 54 278 0.0 0.0 0.00 0.00 0.00 57 1018.1
20260504033545 54 278 0.0 0.0 0.00 0.00 0.00 57 1018.1
20260504033042 54 278 0.0 0.0 0.00 0.00 0.00 56 1018.0
20260504032542 54 278 0.0 0.0 0.00 0.00 0.00 56 1018.1
20260504032046 54 278 0.0 0.0 0.00 0.00 0.00 56 1018.2
20260504031542 54 278 0.0 0.0 0.00 0.00 0.00 56 1018.1
20260504031041 53 278 0.0 0.0 0.00 0.00 0.00 56 1018.2
20260504030542 53 278 0.0 0.0 0.00 0.00 0.00 56 1018.3
20260504030040 53 278 0.0 0.0 0.00 0.00 0.00 56 1018.2
20260504025540 53 278 0.0 0.0 0.00 0.00 0.00 56 1018.2
20260504025040 53 278 0.0 0.0 0.00 0.00 0.00 57 1018.3
20260504024543 53 278 0.0 0.0 0.00 0.00 0.00 57 1018.3
20260504024044 53 278 0.0 0.0 0.00 0.00 0.00 57 1018.4
20260504023541 53 278 0.0 0.0 0.00 0.00 0.00 56 1018.4
20260504023040 53 278 0.0 0.0 0.00 0.00 0.00 56 1018.3
20260504022540 53 278 0.0 0.0 0.00 0.00 0.00 55 1018.3
20260504022040 53 278 0.0 0.0 0.00 0.00 0.00 55 1018.3
20260504021539 53 278 0.0 0.0 0.00 0.00 0.00 55 1018.3
20260504021042 53 278 0.0 0.0 0.00 0.00 0.00 55 1018.3
20260504020539 53 278 0.0 0.9 0.00 0.00 0.00 55 1018.2
20260504020106 53 278 0.0 0.9 0.00 0.00 0.00 56 1018.1
20260504015540 53 278 0.0 0.9 0.00 0.00 0.00 55 1018.1
20260504015039 54 278 0.0 0.0 0.00 0.00 0.00 55 1018.0
20260504014554 54 278 0.0 0.0 0.00 0.00 0.00 54 1018.0
20260504014039 54 278 0.0 0.9 0.00 0.00 0.00 54 1018.0
20260504013538 54 278 0.0 0.9 0.00 0.00 0.00 54 1018.1
20260504013047 54 278 0.0 0.0 0.00 0.00 0.00 54 1018.1
20260504012540 55 278 0.0 0.0 0.00 0.00 0.00 55 1018.0
20260504012038 55 278 0.0 0.9 0.00 0.00 0.00 53 1017.9
20260504011538 55 277 0.0 1.7 0.00 0.00 0.00 53 1017.9
20260504011038 55 277 0.0 1.7 0.00 0.00 0.00 53 1017.9
20260504010537 55 277 0.0 0.9 0.00 0.00 0.00 53 1017.9
20260504010042 55 277 0.0 0.9 0.00 0.00 0.00 52 1017.8
20260504005537 55 277 0.0 0.9 0.00 0.00 0.00 51 1017.7
20260504005038 55 277 0.0 0.9 0.00 0.00 0.00 52 1017.7
20260504004550 56 277 0.0 0.0 0.00 0.00 0.00 51 1017.6
20260504004036 56 277 0.0 0.0 0.00 0.00 0.00 52 1017.6
20260504003536 56 277 0.0 0.0 0.00 0.00 0.00 51 1017.6
20260504003037 57 277 0.0 0.0 0.00 0.00 0.00 51 1017.5
20260504002536 57 277 0.0 0.0 0.00 0.00 0.00 50 1017.5
20260504002037 57 277 0.0 0.0 0.00 0.00 0.00 50 1017.5
20260504001553 58 277 0.0 0.0 0.00 0.00 0.00 50 1017.4
20260504001035 58 277 0.0 0.0 0.00 0.00 0.00 49 1017.5
20260504000535 58 277 0.0 0.0 0.00 0.00 0.00 49 1017.4
20260504000034 58 277 0.0 0.0 0.00 0.00 0.00 48 1017.5
20260503235536 58 277 0.0 0.0 0.00 0.00 0.00 49 1017.5
20260503235034 59 277 0.0 0.0 0.00 0.00 0.00 47 1017.4
20260503234534 59 277 0.0 0.0 0.00 0.00 0.00 47 1017.5
20260503234036 59 277 0.0 0.9 0.00 0.00 0.00 47 1017.5
20260503233534 59 277 0.0 1.7 0.00 0.00 0.00 46 1017.5
20260503233038 59 275 0.0 1.7 0.00 0.00 0.00 45 1017.4
20260503232533 59 288 0.0 0.9 0.00 0.00 0.00 43 1017.5
20260503232034 60 286 0.0 0.9 0.00 0.00 0.00 46 1017.4
20260503231534 60 284 0.0 1.7 0.00 0.00 0.00 47 1017.4
20260503231033 60 284 0.0 1.7 0.00 0.00 0.00 44 1017.4
20260503230534 61 284 0.0 2.6 0.00 0.00 0.00 43 1017.4
20260503230032 61 279 0.0 2.6 0.00 0.00 0.00 45 1017.4
20260503225531 61 280 0.0 1.7 0.00 0.00 0.00 45 1017.4
20260503225034 61 280 0.0 1.7 0.00 0.00 0.00 44 1017.4
20260503224532 61 259 0.0 2.6 0.00 0.00 0.00 44 1017.4
20260503224034 61 277 0.0 2.6 0.00 0.00 0.00 42 1017.4
20260503223533 61 259 0.0 1.7 0.00 0.00 0.00 44 1017.4
20260503223031 62 275 0.0 1.7 0.00 0.00 0.00 43 1017.3
20260503222530 62 281 0.0 2.6 0.00 0.00 0.00 44 1017.4
20260503222030 62 280 0.9 2.6 0.00 0.00 0.00 41 1017.4
20260503221530 62 290 0.0 2.6 0.00 0.00 0.00 43 1017.3
20260503221030 62 289 0.0 2.6 0.00 0.00 0.00 42 1017.3
20260503220531 62 281 0.0 1.7 0.00 0.00 0.00 44 1017.4
20260503220040 62 292 0.0 1.7 0.00 0.00 0.00 43 1017.5
20260503215528 62 294 0.0 1.7 0.00 0.00 0.00 42 1017.5
20260503215028 62 308 0.0 1.7 0.00 0.00 0.00 42 1017.5
20260503214529 63 315 0.0 1.7 0.00 0.00 0.00 43 1017.5
20260503214032 63 318 0.0 3.5 0.00 0.00 0.00 41 1017.5
20260503213528 63 273 0.9 3.5 0.00 0.00 0.00 43 1017.6
20260503213028 63 285 0.9 1.7 0.00 0.00 0.00 45 1017.6
20260503212528 63 300 0.0 2.6 0.00 0.00 0.00 42 1017.6
20260503212027 63 281 0.0 2.6 0.00 0.00 0.00 43 1017.7
20260503211528 63 304 0.0 2.6 0.00 0.00 0.00 44 1017.7
20260503211027 63 257 0.9 1.7 0.00 0.00 0.00 45 1017.7
20260503210527 63 242 0.0 0.0 0.00 0.00 0.00 45 1017.8
20260503210026 63 263 0.0 0.0 0.00 0.00 0.00 45 1017.8
20260503205529 63 263 0.0 0.9 0.00 0.00 0.00 47 1017.9
20260503205026 63 263 0.0 0.9 0.00 0.00 0.00 48 1017.9
20260503204526 63 263 0.0 1.7 0.00 0.00 0.00 45 1017.9
20260503204025 63 263 0.0 2.6 0.00 0.00 0.00 43 1018.0
20260503203525 63 264 0.9 2.6 0.00 0.00 0.00 43 1018.2
20260503203042 63 157 0.0 1.7 0.00 0.00 0.00 45 1018.2
20260503202524 62 297 0.0 2.6 0.00 0.00 0.00 43 1018.2
20260503202024 62 99 0.0 2.6 0.00 0.00 0.00 43 1018.3
20260503201526 62 298 0.0 1.7 0.00 0.00 0.00 46 1018.5
20260503201024 62 302 0.0 0.0 0.00 0.00 0.00 43 1018.5
20260503200522 62 302 0.0 0.0 0.00 0.00 0.00 43 1018.6
20260503200021 62 301 0.0 0.0 0.00 0.00 0.00 42 1018.7
20260503195521 62 270 0.0 1.7 0.00 0.00 0.00 40 1018.7
20260503195020 62 309 0.0 1.7 0.00 0.00 0.00 39 1018.8
20260503194534 62 308 0.0 3.5 0.00 0.00 0.00 40 1018.9
20260503194019 61 268 0.0 3.5 0.00 0.00 0.00 39 1018.9
20260503193521 61 276 0.0 1.7 0.00 0.00 0.00 41 1019.0
20260503193019 61 315 0.0 0.0 0.00 0.00 0.00 43 1019.1
20260503192518 61 314 0.0 1.7 0.00 0.00 0.00 39 1019.1
20260503192017 61 314 0.0 1.7 0.00 0.00 0.00 40 1019.3
20260503191517 61 300 0.0 1.7 0.00 0.00 0.00 40 1019.3
20260503191016 61 305 0.0 0.9 0.00 0.00 0.00 42 1019.4
20260503190516 61 290 0.0 3.5 0.00 0.00 0.00 40 1019.5
20260503190019 61 290 0.0 3.5 0.00 0.00 0.00 42 1019.5
20260503185520 60 313 0.0 2.6 0.00 0.00 0.00 42 1019.5
20260503185016 60 300 0.0 2.6 0.00 0.00 0.00 41 1019.5
20260503184522 60 288 0.0 2.6 0.00 0.00 0.00 40 1019.7
20260503184014 60 292 0.9 2.6 0.00 0.00 0.00 40 1019.7
20260503183514 60 315 0.0 1.7 0.00 0.00 0.00 42 1019.7
20260503183013 60 330 0.0 1.7 0.00 0.00 0.00 39 1019.7
20260503182513 60 323 0.0 0.0 0.00 0.00 0.00 38 1019.7
20260503182013 60 283 0.0 0.0 0.00 0.00 0.00 39 1019.8
20260503181513 60 298 0.0 1.7 0.00 0.00 0.00 42 1019.9
20260503181013 60 264 0.0 1.7 0.00 0.00 0.00 42 1019.9
20260503180511 60 277 0.0 1.7 0.00 0.00 0.00 44 1019.9
20260503180010 59 267 0.0 2.6 0.00 0.00 0.00 46 1019.9
20260503175509 59 263 0.0 2.6 0.00 0.00 0.00 44 1020.1
20260503175008 59 269 0.9 2.6 0.00 0.00 0.00 44 1020.0
20260503174508 59 49 0.0 1.7 0.00 0.00 0.00 47 1020.0
20260503174007 59 278 0.0 1.7 0.00 0.00 0.00 50 1020.0
20260503173507 59 310 0.0 1.7 0.00 0.00 0.00 48 1020.1
20260503173007 59 263 0.0 2.6 0.00 0.00 0.00 49 1020.2
20260503172510 59 260 0.9 2.6 0.00 0.00 0.00 51 1020.3
20260503172011 58 260 0.9 2.6 0.00 0.00 0.00 50 1020.4
20260503171506 58 288 0.0 1.7 0.00 0.00 0.00 49 1020.4
20260503171007 58 19 0.0 1.7 0.00 0.00 0.00 47 1020.4
20260503170506 58 280 0.0 1.7 0.00 0.00 0.00 52 1020.5
20260503150555 53 118 0.0 1.7 0.00 0.00 0.00 60 1021.3